Wekiva Springs, Florida
Current Conditions -  °F | °C
As of 12:53 AM on Friday 31 Oct 2014 (Local Time) from KORL Reporting Station
Broken Clouds Broken Clouds  
Wind Chill: 23°   Ceiling: 12000
Heat Index: 23°   Visibility: 10mi
Dew Point: 20°   Wind: 0mph
Humidity: 82%   Direction: NA
Pressure: 29.88"   Gusts: NA
Location:  28.7°N, 81.42°W
Report Text: KORL 310453Z 00000KT 10SM SCT050 BKN120 23/20 A2988 RMK AO2 LTG DSNT SE SLP122 T02330200 402890194
Loading
Personal Weather Stations






























Interactive Weather Map
Tropical Storm Tracking
New forecast layout! Learn more

10-Day Weather Forecast

Advertisements
Track Severe Weather on mobile